sensor_id;sensor_type;location;lat;lon;timestamp;temperature;humidity
12833;DHT22;6483;51.310;4.462;2022-11-15T00:00:57;8.90;99.90
12833;DHT22;6483;51.310;4.462;2022-11-15T00:03:27;9.00;99.90
12833;DHT22;6483;51.310;4.462;2022-11-15T00:05:55;9.00;99.90
12833;DHT22;6483;51.310;4.462;2022-11-15T00:08:29;9.10;99.90
12833;DHT22;6483;51.310;4.462;2022-11-15T00:10:56;9.10;99.90
12833;DHT22;6483;51.310;4.462;2022-11-15T00:13:22;9.20;99.90
12833;DHT22;6483;51.310;4.462;2022-11-15T00:15:48;9.10;99.90
12833;DHT22;6483;51.310;4.462;2022-11-15T00:18:15;9.20;99.90
12833;DHT22;6483;51.310;4.462;2022-11-15T00:20:44;9.30;99.90
12833;DHT22;6483;51.310;4.462;2022-11-15T00:23:10;9.30;99.90
12833;DHT22;6483;51.310;4.462;2022-11-15T00:25:58;9.30;99.90
12833;DHT22;6483;51.310;4.462;2022-11-15T00:28:24;9.40;99.90
12833;DHT22;6483;51.310;4.462;2022-11-15T00:30:50;9.40;99.90
12833;DHT22;6483;51.310;4.462;2022-11-15T00:33:16;9.50;99.90
12833;DHT22;6483;51.310;4.462;2022-11-15T00:35:41;9.60;99.90
12833;DHT22;6483;51.310;4.462;2022-11-15T00:38:08;9.60;99.90
12833;DHT22;6483;51.310;4.462;2022-11-15T00:40:34;9.70;99.90
12833;DHT22;6483;51.310;4.462;2022-11-15T00:42:59;9.70;99.90
12833;DHT22;6483;51.310;4.462;2022-11-15T00:45:26;9.80;99.90
12833;DHT22;6483;51.310;4.462;2022-11-15T00:47:52;9.80;99.90
12833;DHT22;6483;51.310;4.462;2022-11-15T00:50:18;9.90;99.90
12833;DHT22;6483;51.310;4.462;2022-11-15T00:52:47;9.90;99.90
12833;DHT22;6483;51.310;4.462;2022-11-15T00:55:17;10.00;99.90
12833;DHT22;6483;51.310;4.462;2022-11-15T00:57:43;10.00;99.90
12833;DHT22;6483;51.310;4.462;2022-11-15T01:00:14;10.00;99.90
12833;DHT22;6483;51.310;4.462;2022-11-15T01:02:43;10.10;99.90
12833;DHT22;6483;51.310;4.462;2022-11-15T01:05:09;10.10;99.90
12833;DHT22;6483;51.310;4.462;2022-11-15T01:07:35;10.20;99.90
12833;DHT22;6483;51.310;4.462;2022-11-15T01:10:01;10.20;99.90
12833;DHT22;6483;51.310;4.462;2022-11-15T01:12:26;10.20;99.90
12833;DHT22;6483;51.310;4.462;2022-11-15T01:14:52;10.30;99.90
12833;DHT22;6483;51.310;4.462;2022-11-15T01:17:18;10.40;99.90
12833;DHT22;6483;51.310;4.462;2022-11-15T01:19:46;10.40;99.90
12833;DHT22;6483;51.310;4.462;2022-11-15T01:22:15;10.40;99.90
12833;DHT22;6483;51.310;4.462;2022-11-15T01:24:41;10.50;99.90
12833;DHT22;6483;51.310;4.462;2022-11-15T01:27:07;10.60;99.90
12833;DHT22;6483;51.310;4.462;2022-11-15T01:29:33;10.60;99.90
12833;DHT22;6483;51.310;4.462;2022-11-15T01:31:59;10.70;99.90
12833;DHT22;6483;51.310;4.462;2022-11-15T01:34:24;10.90;99.90
12833;DHT22;6483;51.310;4.462;2022-11-15T01:36:51;10.90;99.90
12833;DHT22;6483;51.310;4.462;2022-11-15T01:39:20;10.90;99.90
12833;DHT22;6483;51.310;4.462;2022-11-15T01:41:45;11.00;99.90
12833;DHT22;6483;51.310;4.462;2022-11-15T01:47:25;11.10;99.90
12833;DHT22;6483;51.310;4.462;2022-11-15T01:50:14;11.10;99.90
12833;DHT22;6483;51.310;4.462;2022-11-15T01:52:45;11.20;99.90
12833;DHT22;6483;51.310;4.462;2022-11-15T01:55:15;11.20;99.90
12833;DHT22;6483;51.310;4.462;2022-11-15T01:57:48;11.30;99.90
12833;DHT22;6483;51.310;4.462;2022-11-15T02:00:16;11.40;99.90
12833;DHT22;6483;51.310;4.462;2022-11-15T02:02:41;11.50;99.90
12833;DHT22;6483;51.310;4.462;2022-11-15T02:05:09;11.50;99.90
12833;DHT22;6483;51.310;4.462;2022-11-15T02:07:38;11.60;99.90
12833;DHT22;6483;51.310;4.462;2022-11-15T02:10:16;11.60;99.90
12833;DHT22;6483;51.310;4.462;2022-11-15T02:12:43;11.70;99.90
12833;DHT22;6483;51.310;4.462;2022-11-15T02:15:10;11.70;99.90
12833;DHT22;6483;51.310;4.462;2022-11-15T02:20:56;11.80;99.90
12833;DHT22;6483;51.310;4.462;2022-11-15T02:26:42;11.90;99.90
12833;DHT22;6483;51.310;4.462;2022-11-15T02:32:20;11.90;99.90
12833;DHT22;6483;51.310;4.462;2022-11-15T02:35:49;11.90;99.90
12833;DHT22;6483;51.310;4.462;2022-11-15T02:38:06;12.00;99.90
12833;DHT22;6483;51.310;4.462;2022-11-15T02:40:57;12.00;99.90
12833;DHT22;6483;51.310;4.462;2022-11-15T02:43:45;12.00;99.90
12833;DHT22;6483;51.310;4.462;2022-11-15T02:49:50;12.00;99.90
12833;DHT22;6483;51.310;4.462;2022-11-15T02:52:21;12.00;99.90
12833;DHT22;6483;51.310;4.462;2022-11-15T02:54:58;12.00;99.90
12833;DHT22;6483;51.310;4.462;2022-11-15T02:57:51;12.00;99.90
12833;DHT22;6483;51.310;4.462;2022-11-15T03:00:22;12.00;99.90
12833;DHT22;6483;51.310;4.462;2022-11-15T03:08:45;12.00;99.90
12833;DHT22;6483;51.310;4.462;2022-11-15T03:11:18;12.00;99.90
12833;DHT22;6483;51.310;4.462;2022-11-15T03:14:14;12.10;99.90
12833;DHT22;6483;51.310;4.462;2022-11-15T03:16:50;12.00;99.90
12833;DHT22;6483;51.310;4.462;2022-11-15T03:22:28;12.00;99.90
12833;DHT22;6483;51.310;4.462;2022-11-15T03:25:00;12.00;99.90
12833;DHT22;6483;51.310;4.462;2022-11-15T03:27:31;12.00;99.90
12833;DHT22;6483;51.310;4.462;2022-11-15T03:30:02;12.00;99.90
12833;DHT22;6483;51.310;4.462;2022-11-15T03:32:31;12.00;99.90
12833;DHT22;6483;51.310;4.462;2022-11-15T03:35:22;12.10;99.90
12833;DHT22;6483;51.310;4.462;2022-11-15T03:40:16;12.10;99.90
12833;DHT22;6483;51.310;4.462;2022-11-15T03:43:10;12.10;99.90
12833;DHT22;6483;51.310;4.462;2022-11-15T03:45:51;12.10;99.90
12833;DHT22;6483;51.310;4.462;2022-11-15T03:48:27;12.10;99.90
12833;DHT22;6483;51.310;4.462;2022-11-15T03:50:54;12.10;99.90
12833;DHT22;6483;51.310;4.462;2022-11-15T03:53:22;12.00;99.90
12833;DHT22;6483;51.310;4.462;2022-11-15T03:55:50;12.00;99.90
12833;DHT22;6483;51.310;4.462;2022-11-15T03:58:16;12.00;99.90
12833;DHT22;6483;51.310;4.462;2022-11-15T04:00:42;12.00;99.90
12833;DHT22;6483;51.310;4.462;2022-11-15T04:03:08;12.00;99.90
12833;DHT22;6483;51.310;4.462;2022-11-15T04:05:36;11.90;99.90
12833;DHT22;6483;51.310;4.462;2022-11-15T04:08:02;11.90;99.90
12833;DHT22;6483;51.310;4.462;2022-11-15T04:10:28;11.90;99.90
12833;DHT22;6483;51.310;4.462;2022-11-15T04:12:54;11.90;99.90
12833;DHT22;6483;51.310;4.462;2022-11-15T04:15:25;11.90;99.90
12833;DHT22;6483;51.310;4.462;2022-11-15T04:17:53;11.90;99.90
12833;DHT22;6483;51.310;4.462;2022-11-15T04:20:25;11.90;99.90
12833;DHT22;6483;51.310;4.462;2022-11-15T04:23:15;11.90;99.90
12833;DHT22;6483;51.310;4.462;2022-11-15T04:26:02;11.80;99.90
12833;DHT22;6483;51.310;4.462;2022-11-15T04:28:31;11.80;99.90
12833;DHT22;6483;51.310;4.462;2022-11-15T04:30:57;11.80;99.90
12833;DHT22;6483;51.310;4.462;2022-11-15T04:33:23;11.70;99.90
12833;DHT22;6483;51.310;4.462;2022-11-15T04:35:48;11.80;99.90
12833;DHT22;6483;51.310;4.462;2022-11-15T04:38:38;11.70;99.90
12833;DHT22;6483;51.310;4.462;2022-11-15T04:41:06;11.70;99.90
12833;DHT22;6483;51.310;4.462;2022-11-15T04:43:33;9.50;99.90
12833;DHT22;6483;51.310;4.462;2022-11-15T04:46:17;11.70;99.90
12833;DHT22;6483;51.310;4.462;2022-11-15T04:48:42;11.70;99.90
12833;DHT22;6483;51.310;4.462;2022-11-15T04:51:08;11.60;99.90
12833;DHT22;6483;51.310;4.462;2022-11-15T04:53:33;11.60;99.90
12833;DHT22;6483;51.310;4.462;2022-11-15T04:55:59;11.60;99.90
12833;DHT22;6483;51.310;4.462;2022-11-15T04:58:25;11.50;99.90
12833;DHT22;6483;51.310;4.462;2022-11-15T05:00:50;11.50;99.90
12833;DHT22;6483;51.310;4.462;2022-11-15T05:03:16;11.50;99.90
12833;DHT22;6483;51.310;4.462;2022-11-15T05:06:01;11.50;99.90
12833;DHT22;6483;51.310;4.462;2022-11-15T05:08:27;12.20;99.90
12833;DHT22;6483;51.310;4.462;2022-11-15T05:10:55;11.50;99.90
12833;DHT22;6483;51.310;4.462;2022-11-15T05:13:22;11.40;99.90
12833;DHT22;6483;51.310;4.462;2022-11-15T05:15:48;11.40;99.90
12833;DHT22;6483;51.310;4.462;2022-11-15T05:18:14;11.40;99.90
12833;DHT22;6483;51.310;4.462;2022-11-15T05:20:39;11.30;99.90
12833;DHT22;6483;51.310;4.462;2022-11-15T05:23:05;11.30;99.90
12833;DHT22;6483;51.310;4.462;2022-11-15T05:25:31;11.20;99.90
12833;DHT22;6483;51.310;4.462;2022-11-15T05:27:57;11.20;99.90
12833;DHT22;6483;51.310;4.462;2022-11-15T05:30:23;11.10;99.90
12833;DHT22;6483;51.310;4.462;2022-11-15T05:32:50;11.10;99.90
12833;DHT22;6483;51.310;4.462;2022-11-15T05:35:25;11.00;99.90
12833;DHT22;6483;51.310;4.462;2022-11-15T05:37:55;11.00;99.90
12833;DHT22;6483;51.310;4.462;2022-11-15T05:40:24;10.80;99.90
12833;DHT22;6483;51.310;4.462;2022-11-15T05:42:50;10.80;99.90
12833;DHT22;6483;51.310;4.462;2022-11-15T05:45:19;10.70;99.90
12833;DHT22;6483;51.310;4.462;2022-11-15T05:47:46;10.70;99.90
12833;DHT22;6483;51.310;4.462;2022-11-15T05:50:14;10.70;99.90
12833;DHT22;6483;51.310;4.462;2022-11-15T05:52:41;10.60;99.90
12833;DHT22;6483;51.310;4.462;2022-11-15T05:55:08;10.50;99.90
12833;DHT22;6483;51.310;4.462;2022-11-15T05:57:35;10.50;99.90
12833;DHT22;6483;51.310;4.462;2022-11-15T06:00:08;10.50;99.90
12833;DHT22;6483;51.310;4.462;2022-11-15T06:02:35;10.60;99.90
12833;DHT22;6483;51.310;4.462;2022-11-15T06:05:03;10.60;99.90
12833;DHT22;6483;51.310;4.462;2022-11-15T06:07:30;10.60;99.90
12833;DHT22;6483;51.310;4.462;2022-11-15T06:09:58;10.70;99.90
12833;DHT22;6483;51.310;4.462;2022-11-15T06:12:24;10.80;99.90
12833;DHT22;6483;51.310;4.462;2022-11-15T06:14:50;10.80;99.90
12833;DHT22;6483;51.310;4.462;2022-11-15T06:17:16;10.80;99.90
12833;DHT22;6483;51.310;4.462;2022-11-15T06:19:45;10.80;99.90
12833;DHT22;6483;51.310;4.462;2022-11-15T06:22:10;11.00;99.90
12833;DHT22;6483;51.310;4.462;2022-11-15T06:24:36;10.90;99.90
12833;DHT22;6483;51.310;4.462;2022-11-15T06:27:01;10.90;99.90
12833;DHT22;6483;51.310;4.462;2022-11-15T06:29:28;10.90;99.90
12833;DHT22;6483;51.310;4.462;2022-11-15T06:31:54;10.90;99.90
12833;DHT22;6483;51.310;4.462;2022-11-15T06:34:20;10.70;99.90
12833;DHT22;6483;51.310;4.462;2022-11-15T06:36:45;10.70;99.90
12833;DHT22;6483;51.310;4.462;2022-11-15T06:39:11;10.60;99.90
12833;DHT22;6483;51.310;4.462;2022-11-15T06:41:37;10.50;99.90
12833;DHT22;6483;51.310;4.462;2022-11-15T06:44:03;10.40;99.90
12833;DHT22;6483;51.310;4.462;2022-11-15T06:46:28;10.30;99.90
12833;DHT22;6483;51.310;4.462;2022-11-15T06:48:57;11.50;99.90
12833;DHT22;6483;51.310;4.462;2022-11-15T06:51:23;10.30;99.90
12833;DHT22;6483;51.310;4.462;2022-11-15T06:53:48;10.40;99.90
12833;DHT22;6483;51.310;4.462;2022-11-15T06:56:14;10.40;99.90
12833;DHT22;6483;51.310;4.462;2022-11-15T06:58:40;10.50;99.90
12833;DHT22;6483;51.310;4.462;2022-11-15T07:01:08;10.60;99.90
12833;DHT22;6483;51.310;4.462;2022-11-15T07:03:35;10.70;99.90
12833;DHT22;6483;51.310;4.462;2022-11-15T07:06:02;10.60;99.90
12833;DHT22;6483;51.310;4.462;2022-11-15T07:08:29;11.10;99.90
12833;DHT22;6483;51.310;4.462;2022-11-15T07:10:57;10.40;99.90
12833;DHT22;6483;51.310;4.462;2022-11-15T07:13:25;10.30;99.90
12833;DHT22;6483;51.310;4.462;2022-11-15T07:15:51;10.20;99.90
12833;DHT22;6483;51.310;4.462;2022-11-15T07:18:18;10.10;99.90
12833;DHT22;6483;51.310;4.462;2022-11-15T07:20:50;10.10;99.90
12833;DHT22;6483;51.310;4.462;2022-11-15T07:23:19;10.00;99.90
12833;DHT22;6483;51.310;4.462;2022-11-15T07:25:44;11.20;99.90
12833;DHT22;6483;51.310;4.462;2022-11-15T07:28:13;10.00;99.90
12833;DHT22;6483;51.310;4.462;2022-11-15T07:30:39;10.00;99.90
12833;DHT22;6483;51.310;4.462;2022-11-15T07:33:05;10.70;99.90
12833;DHT22;6483;51.310;4.462;2022-11-15T07:35:33;10.00;99.90
12833;DHT22;6483;51.310;4.462;2022-11-15T07:38:03;9.90;99.90
12833;DHT22;6483;51.310;4.462;2022-11-15T07:40:30;9.80;99.90
12833;DHT22;6483;51.310;4.462;2022-11-15T07:43:09;9.80;99.90
12833;DHT22;6483;51.310;4.462;2022-11-15T07:45:40;9.80;99.90
12833;DHT22;6483;51.310;4.462;2022-11-15T07:48:06;9.90;99.90
12833;DHT22;6483;51.310;4.462;2022-11-15T07:50:32;9.90;99.90
12833;DHT22;6483;51.310;4.462;2022-11-15T07:52:59;9.90;99.90
12833;DHT22;6483;51.310;4.462;2022-11-15T07:55:25;9.90;99.90
12833;DHT22;6483;51.310;4.462;2022-11-15T07:57:52;10.50;99.90
12833;DHT22;6483;51.310;4.462;2022-11-15T08:00:19;10.00;99.90
12833;DHT22;6483;51.310;4.462;2022-11-15T08:02:45;10.00;99.90
12833;DHT22;6483;51.310;4.462;2022-11-15T08:05:11;10.00;99.90
12833;DHT22;6483;51.310;4.462;2022-11-15T08:07:40;10.00;99.90
12833;DHT22;6483;51.310;4.462;2022-11-15T08:10:12;10.00;99.90
12833;DHT22;6483;51.310;4.462;2022-11-15T08:12:39;10.10;99.90
12833;DHT22;6483;51.310;4.462;2022-11-15T08:15:05;10.10;99.90
12833;DHT22;6483;51.310;4.462;2022-11-15T08:17:34;10.10;99.90
12833;DHT22;6483;51.310;4.462;2022-11-15T08:19:59;10.20;99.90
12833;DHT22;6483;51.310;4.462;2022-11-15T08:22:25;10.20;99.90
12833;DHT22;6483;51.310;4.462;2022-11-15T08:24:53;10.30;99.90
12833;DHT22;6483;51.310;4.462;2022-11-15T08:27:21;10.40;99.90
12833;DHT22;6483;51.310;4.462;2022-11-15T08:29:48;10.40;99.90
12833;DHT22;6483;51.310;4.462;2022-11-15T08:32:14;10.50;99.90
12833;DHT22;6483;51.310;4.462;2022-11-15T08:34:40;10.60;99.90
12833;DHT22;6483;51.310;4.462;2022-11-15T08:37:05;10.70;99.90
12833;DHT22;6483;51.310;4.462;2022-11-15T08:39:37;11.10;99.90
12833;DHT22;6483;51.310;4.462;2022-11-15T08:42:04;11.60;99.90
12833;DHT22;6483;51.310;4.462;2022-11-15T08:44:30;11.80;99.90
12833;DHT22;6483;51.310;4.462;2022-11-15T08:47:14;11.90;99.90
12833;DHT22;6483;51.310;4.462;2022-11-15T08:49:43;11.90;99.90
12833;DHT22;6483;51.310;4.462;2022-11-15T08:52:08;11.80;99.90
12833;DHT22;6483;51.310;4.462;2022-11-15T08:54:37;11.70;99.90
12833;DHT22;6483;51.310;4.462;2022-11-15T08:57:06;11.80;99.90
12833;DHT22;6483;51.310;4.462;2022-11-15T08:59:32;12.00;99.90
12833;DHT22;6483;51.310;4.462;2022-11-15T09:01:57;12.30;99.90
12833;DHT22;6483;51.310;4.462;2022-11-15T09:04:23;12.50;99.90
12833;DHT22;6483;51.310;4.462;2022-11-15T09:06:52;12.40;99.90
12833;DHT22;6483;51.310;4.462;2022-11-15T09:09:18;12.20;99.90
12833;DHT22;6483;51.310;4.462;2022-11-15T09:11:44;12.10;99.90
12833;DHT22;6483;51.310;4.462;2022-11-15T09:14:14;12.30;99.90
12833;DHT22;6483;51.310;4.462;2022-11-15T09:16:52;12.80;99.90
12833;DHT22;6483;51.310;4.462;2022-11-15T09:19:20;12.80;99.90
12833;DHT22;6483;51.310;4.462;2022-11-15T09:21:49;13.10;99.90
12833;DHT22;6483;51.310;4.462;2022-11-15T09:24:15;13.30;99.90
12833;DHT22;6483;51.310;4.462;2022-11-15T09:26:41;13.00;99.90
12833;DHT22;6483;51.310;4.462;2022-11-15T09:29:06;12.50;99.90
12833;DHT22;6483;51.310;4.462;2022-11-15T09:31:32;12.20;99.90
12833;DHT22;6483;51.310;4.462;2022-11-15T09:33:58;12.10;99.90
12833;DHT22;6483;51.310;4.462;2022-11-15T09:36:24;12.10;99.90
12833;DHT22;6483;51.310;4.462;2022-11-15T09:38:49;12.20;99.90
12833;DHT22;6483;51.310;4.462;2022-11-15T09:41:30;12.40;99.90
12833;DHT22;6483;51.310;4.462;2022-11-15T09:49:16;13.20;99.90
12833;DHT22;6483;51.310;4.462;2022-11-15T09:52:03;13.10;99.90
12833;DHT22;6483;51.310;4.462;2022-11-15T09:54:37;14.40;99.90
12833;DHT22;6483;51.310;4.462;2022-11-15T09:57:13;12.70;99.90
12833;DHT22;6483;51.310;4.462;2022-11-15T10:05:11;13.30;99.90
12833;DHT22;6483;51.310;4.462;2022-11-15T10:07:50;13.40;99.90
12833;DHT22;6483;51.310;4.462;2022-11-15T10:10:39;13.80;99.90
12833;DHT22;6483;51.310;4.462;2022-11-15T10:15:51;15.10;99.90
12833;DHT22;6483;51.310;4.462;2022-11-15T10:18:28;15.30;99.90
12833;DHT22;6483;51.310;4.462;2022-11-15T10:21:07;15.10;99.90
12833;DHT22;6483;51.310;4.462;2022-11-15T10:23:38;15.50;99.90
12833;DHT22;6483;51.310;4.462;2022-11-15T10:26:13;16.00;99.90
12833;DHT22;6483;51.310;4.462;2022-11-15T10:28:43;17.10;99.90
12833;DHT22;6483;51.310;4.462;2022-11-15T10:31:25;16.40;99.90
12833;DHT22;6483;51.310;4.462;2022-11-15T10:36:58;16.50;99.90
12833;DHT22;6483;51.310;4.462;2022-11-15T10:39:27;17.50;99.90
12833;DHT22;6483;51.310;4.462;2022-11-15T10:41:54;16.50;99.90
12833;DHT22;6483;51.310;4.462;2022-11-15T10:49:18;16.20;99.90
12833;DHT22;6483;51.310;4.462;2022-11-15T10:51:58;15.90;99.90
12833;DHT22;6483;51.310;4.462;2022-11-15T10:54:35;16.00;99.90
12833;DHT22;6483;51.310;4.462;2022-11-15T10:57:13;16.00;99.90
12833;DHT22;6483;51.310;4.462;2022-11-15T10:59:47;16.10;99.90
12833;DHT22;6483;51.310;4.462;2022-11-15T11:04:56;17.00;99.90
12833;DHT22;6483;51.310;4.462;2022-11-15T11:07:43;17.00;99.90
12833;DHT22;6483;51.310;4.462;2022-11-15T11:10:21;16.40;99.90
12833;DHT22;6483;51.310;4.462;2022-11-15T11:12:50;15.80;99.90
12833;DHT22;6483;51.310;4.462;2022-11-15T11:15:17;15.80;99.90
12833;DHT22;6483;51.310;4.462;2022-11-15T11:21:05;15.40;99.90
12833;DHT22;6483;51.310;4.462;2022-11-15T11:23:47;14.80;99.90
12833;DHT22;6483;51.310;4.462;2022-11-15T11:34:43;15.00;99.90
12833;DHT22;6483;51.310;4.462;2022-11-15T11:43:30;14.90;99.90
12833;DHT22;6483;51.310;4.462;2022-11-15T11:46:42;14.60;99.90
12833;DHT22;6483;51.310;4.462;2022-11-15T11:52:07;14.50;99.90
12833;DHT22;6483;51.310;4.462;2022-11-15T11:54:58;14.50;99.90
12833;DHT22;6483;51.310;4.462;2022-11-15T11:57:53;14.20;99.90
12833;DHT22;6483;51.310;4.462;2022-11-15T12:00:26;14.10;99.90
12833;DHT22;6483;51.310;4.462;2022-11-15T12:05:44;14.00;99.90
12833;DHT22;6483;51.310;4.462;2022-11-15T12:14:03;13.80;99.90
12833;DHT22;6483;51.310;4.462;2022-11-15T12:16:31;13.90;99.90
12833;DHT22;6483;51.310;4.462;2022-11-15T12:19:04;14.00;99.90
12833;DHT22;6483;51.310;4.462;2022-11-15T12:24:27;13.70;99.90
12833;DHT22;6483;51.310;4.462;2022-11-15T12:27:36;13.80;99.90
12833;DHT22;6483;51.310;4.462;2022-11-15T12:30:02;13.80;99.90
12833;DHT22;6483;51.310;4.462;2022-11-15T12:32:34;13.90;99.90
12833;DHT22;6483;51.310;4.462;2022-11-15T12:38:03;13.60;99.90
12833;DHT22;6483;51.310;4.462;2022-11-15T12:40:34;13.60;99.90
12833;DHT22;6483;51.310;4.462;2022-11-15T12:45:45;13.40;99.90
12833;DHT22;6483;51.310;4.462;2022-11-15T12:51:06;13.50;99.90
12833;DHT22;6483;51.310;4.462;2022-11-15T12:53:34;13.40;99.90
12833;DHT22;6483;51.310;4.462;2022-11-15T12:58:57;13.30;99.90
12833;DHT22;6483;51.310;4.462;2022-11-15T13:01:57;13.20;99.90
12833;DHT22;6483;51.310;4.462;2022-11-15T13:04:29;13.20;99.90
12833;DHT22;6483;51.310;4.462;2022-11-15T13:06:58;13.20;99.90
12833;DHT22;6483;51.310;4.462;2022-11-15T13:15:00;13.20;99.90
12833;DHT22;6483;51.310;4.462;2022-11-15T13:20:22;13.30;99.90
12833;DHT22;6483;51.310;4.462;2022-11-15T13:22:59;13.20;99.90
12833;DHT22;6483;51.310;4.462;2022-11-15T13:28:49;13.20;99.90
12833;DHT22;6483;51.310;4.462;2022-11-15T13:31:41;13.20;99.90
12833;DHT22;6483;51.310;4.462;2022-11-15T13:34:31;13.40;99.90
12833;DHT22;6483;51.310;4.462;2022-11-15T13:39:50;13.50;99.90
12833;DHT22;6483;51.310;4.462;2022-11-15T13:42:18;13.50;99.90
12833;DHT22;6483;51.310;4.462;2022-11-15T13:45:04;13.50;99.90
12833;DHT22;6483;51.310;4.462;2022-11-15T13:47:31;13.40;99.90
12833;DHT22;6483;51.310;4.462;2022-11-15T13:50:00;13.40;99.90
12833;DHT22;6483;51.310;4.462;2022-11-15T13:52:33;13.40;99.90
12833;DHT22;6483;51.310;4.462;2022-11-15T13:57:49;13.50;99.90
12833;DHT22;6483;51.310;4.462;2022-11-15T14:03:32;13.40;99.90
12833;DHT22;6483;51.310;4.462;2022-11-15T14:06:09;13.40;99.90
12833;DHT22;6483;51.310;4.462;2022-11-15T14:08:38;13.40;99.90
12833;DHT22;6483;51.310;4.462;2022-11-15T14:11:24;13.30;99.90
12833;DHT22;6483;51.310;4.462;2022-11-15T14:14:14;13.30;99.90
12833;DHT22;6483;51.310;4.462;2022-11-15T14:17:04;13.30;99.90
12833;DHT22;6483;51.310;4.462;2022-11-15T14:19:33;13.20;99.90
12833;DHT22;6483;51.310;4.462;2022-11-15T14:22:27;13.20;99.90
12833;DHT22;6483;51.310;4.462;2022-11-15T14:27:39;13.20;99.90
12833;DHT22;6483;51.310;4.462;2022-11-15T14:30:06;13.20;99.90
12833;DHT22;6483;51.310;4.462;2022-11-15T14:32:45;13.20;99.90
12833;DHT22;6483;51.310;4.462;2022-11-15T14:35:18;13.20;99.90
12833;DHT22;6483;51.310;4.462;2022-11-15T14:37:48;13.20;99.90
12833;DHT22;6483;51.310;4.462;2022-11-15T14:40:17;13.20;99.90
12833;DHT22;6483;51.310;4.462;2022-11-15T14:42:45;13.20;99.90
12833;DHT22;6483;51.310;4.462;2022-11-15T14:45:15;13.20;99.90
12833;DHT22;6483;51.310;4.462;2022-11-15T14:47:41;13.10;99.90
12833;DHT22;6483;51.310;4.462;2022-11-15T14:50:12;13.00;99.90
12833;DHT22;6483;51.310;4.462;2022-11-15T14:52:41;13.00;99.90
12833;DHT22;6483;51.310;4.462;2022-11-15T14:55:20;13.00;99.90
12833;DHT22;6483;51.310;4.462;2022-11-15T14:57:46;12.80;99.90
12833;DHT22;6483;51.310;4.462;2022-11-15T15:00:16;12.70;99.90
12833;DHT22;6483;51.310;4.462;2022-11-15T15:02:47;12.60;99.90
12833;DHT22;6483;51.310;4.462;2022-11-15T15:05:42;12.50;99.90
12833;DHT22;6483;51.310;4.462;2022-11-15T15:08:09;12.40;99.90
12833;DHT22;6483;51.310;4.462;2022-11-15T15:10:43;12.20;99.90
12833;DHT22;6483;51.310;4.462;2022-11-15T15:13:19;12.10;99.90
12833;DHT22;6483;51.310;4.462;2022-11-15T15:15:47;12.00;99.90
12833;DHT22;6483;51.310;4.462;2022-11-15T15:18:12;11.90;99.90
12833;DHT22;6483;51.310;4.462;2022-11-15T15:20:39;11.90;99.90
12833;DHT22;6483;51.310;4.462;2022-11-15T15:23:17;11.80;99.90
12833;DHT22;6483;51.310;4.462;2022-11-15T15:25:43;11.70;99.90
12833;DHT22;6483;51.310;4.462;2022-11-15T15:28:11;11.70;99.90
12833;DHT22;6483;51.310;4.462;2022-11-15T15:30:36;11.70;99.90
12833;DHT22;6483;51.310;4.462;2022-11-15T15:33:02;11.70;99.90
12833;DHT22;6483;51.310;4.462;2022-11-15T15:35:31;11.70;99.90
12833;DHT22;6483;51.310;4.462;2022-11-15T15:38:00;11.60;99.90
12833;DHT22;6483;51.310;4.462;2022-11-15T15:40:29;11.60;99.90
12833;DHT22;6483;51.310;4.462;2022-11-15T15:42:55;11.60;99.90
12833;DHT22;6483;51.310;4.462;2022-11-15T15:45:21;11.50;99.90
12833;DHT22;6483;51.310;4.462;2022-11-15T15:47:50;11.50;99.90
12833;DHT22;6483;51.310;4.462;2022-11-15T15:50:35;11.50;99.90
12833;DHT22;6483;51.310;4.462;2022-11-15T15:53:02;11.50;99.90
12833;DHT22;6483;51.310;4.462;2022-11-15T15:55:28;11.50;99.90
12833;DHT22;6483;51.310;4.462;2022-11-15T15:57:55;11.50;99.90
12833;DHT22;6483;51.310;4.462;2022-11-15T16:00:25;11.50;99.90
12833;DHT22;6483;51.310;4.462;2022-11-15T16:02:51;11.40;99.90
12833;DHT22;6483;51.310;4.462;2022-11-15T16:05:17;11.40;99.90
12833;DHT22;6483;51.310;4.462;2022-11-15T16:07:44;11.40;99.90
12833;DHT22;6483;51.310;4.462;2022-11-15T16:10:22;11.50;99.90
12833;DHT22;6483;51.310;4.462;2022-11-15T16:12:48;11.40;99.90
12833;DHT22;6483;51.310;4.462;2022-11-15T16:15:15;11.40;99.90
12833;DHT22;6483;51.310;4.462;2022-11-15T16:17:52;11.40;99.90
12833;DHT22;6483;51.310;4.462;2022-11-15T16:20:43;11.40;99.90
12833;DHT22;6483;51.310;4.462;2022-11-15T16:23:15;11.40;99.90
12833;DHT22;6483;51.310;4.462;2022-11-15T16:25:54;11.40;99.90
12833;DHT22;6483;51.310;4.462;2022-11-15T16:28:26;11.40;99.90
12833;DHT22;6483;51.310;4.462;2022-11-15T16:31:01;11.40;99.90
12833;DHT22;6483;51.310;4.462;2022-11-15T16:33:27;11.40;99.90
12833;DHT22;6483;51.310;4.462;2022-11-15T16:35:56;11.40;99.90
12833;DHT22;6483;51.310;4.462;2022-11-15T16:38:22;11.40;99.90
12833;DHT22;6483;51.310;4.462;2022-11-15T16:40:48;13.10;99.90
12833;DHT22;6483;51.310;4.462;2022-11-15T16:43:13;11.40;99.90
12833;DHT22;6483;51.310;4.462;2022-11-15T16:45:39;11.40;99.90
12833;DHT22;6483;51.310;4.462;2022-11-15T16:48:19;11.40;99.90
12833;DHT22;6483;51.310;4.462;2022-11-15T16:50:45;12.50;99.90
12833;DHT22;6483;51.310;4.462;2022-11-15T16:53:11;11.50;99.90
12833;DHT22;6483;51.310;4.462;2022-11-15T16:55:37;11.40;99.90
12833;DHT22;6483;51.310;4.462;2022-11-15T16:58:03;11.40;99.90
12833;DHT22;6483;51.310;4.462;2022-11-15T17:00:28;11.40;99.90
12833;DHT22;6483;51.310;4.462;2022-11-15T17:02:54;11.50;99.90
12833;DHT22;6483;51.310;4.462;2022-11-15T17:05:22;11.50;99.90
12833;DHT22;6483;51.310;4.462;2022-11-15T17:07:49;11.50;99.90
12833;DHT22;6483;51.310;4.462;2022-11-15T17:10:22;11.50;99.90
12833;DHT22;6483;51.310;4.462;2022-11-15T17:12:49;11.50;99.90
12833;DHT22;6483;51.310;4.462;2022-11-15T17:15:17;11.50;99.90
12833;DHT22;6483;51.310;4.462;2022-11-15T17:17:43;11.50;99.90
12833;DHT22;6483;51.310;4.462;2022-11-15T17:20:16;11.50;99.90
12833;DHT22;6483;51.310;4.462;2022-11-15T17:22:46;11.50;99.90
12833;DHT22;6483;51.310;4.462;2022-11-15T17:25:15;11.50;99.90
12833;DHT22;6483;51.310;4.462;2022-11-15T17:27:45;11.50;99.90
12833;DHT22;6483;51.310;4.462;2022-11-15T17:30:17;11.50;99.90
12833;DHT22;6483;51.310;4.462;2022-11-15T17:32:44;11.50;99.90
12833;DHT22;6483;51.310;4.462;2022-11-15T17:35:15;11.50;99.90
12833;DHT22;6483;51.310;4.462;2022-11-15T17:37:41;11.50;99.90
12833;DHT22;6483;51.310;4.462;2022-11-15T17:40:07;11.50;99.90
12833;DHT22;6483;51.310;4.462;2022-11-15T17:42:34;11.50;99.90
12833;DHT22;6483;51.310;4.462;2022-11-15T17:45:00;11.50;99.90
12833;DHT22;6483;51.310;4.462;2022-11-15T17:47:26;11.50;99.90
12833;DHT22;6483;51.310;4.462;2022-11-15T17:49:55;11.50;99.90
12833;DHT22;6483;51.310;4.462;2022-11-15T17:52:21;11.50;99.90
12833;DHT22;6483;51.310;4.462;2022-11-15T17:54:46;11.50;99.90
12833;DHT22;6483;51.310;4.462;2022-11-15T17:57:14;11.50;99.90
12833;DHT22;6483;51.310;4.462;2022-11-15T17:59:42;12.40;99.90
12833;DHT22;6483;51.310;4.462;2022-11-15T18:02:14;11.60;99.90
12833;DHT22;6483;51.310;4.462;2022-11-15T18:04:40;11.60;99.90
12833;DHT22;6483;51.310;4.462;2022-11-15T18:07:06;11.60;99.90